createdAt,value
2023-02-18T00:01:04.912Z,18.60
2023-02-18T00:03:33.761Z,18.61
2023-02-18T00:06:02.616Z,18.64
2023-02-18T00:08:31.450Z,18.64
2023-02-18T00:10:58.050Z,18.61
2023-02-18T00:13:26.872Z,18.62
2023-02-18T00:15:53.560Z,18.57
2023-02-18T00:18:21.518Z,18.60
2023-02-18T00:20:48.138Z,18.66
2023-02-18T00:23:16.922Z,18.66
2023-02-18T00:25:45.712Z,18.64
2023-02-18T00:28:12.314Z,18.67
2023-02-18T00:30:47.048Z,18.67
2023-02-18T00:33:13.695Z,18.69
2023-02-18T00:35:42.719Z,18.70
2023-02-18T00:38:11.495Z,18.71
2023-02-18T00:40:41.925Z,18.69
2023-02-18T00:43:11.683Z,18.69
2023-02-18T00:45:40.661Z,18.71
2023-02-18T00:48:07.357Z,18.72
2023-02-18T00:50:33.965Z,18.73
2023-02-18T00:53:00.632Z,18.73
2023-02-18T00:55:29.580Z,18.72
2023-02-18T00:57:56.290Z,18.74
2023-02-18T01:00:25.581Z,18.71
2023-02-18T01:02:55.265Z,18.70
2023-02-18T01:05:24.101Z,18.73
2023-02-18T01:07:50.708Z,18.72
2023-02-18T01:10:20.628Z,18.72
2023-02-18T01:12:47.237Z,18.73
2023-02-18T01:15:17.532Z,18.71
2023-02-18T01:17:44.307Z,18.73
2023-02-18T01:20:11.528Z,18.73
2023-02-18T01:22:38.455Z,18.73
2023-02-18T01:25:07.749Z,18.68
2023-02-18T01:27:36.876Z,18.75
2023-02-18T01:30:07.417Z,18.75
2023-02-18T01:32:34.115Z,18.75
2023-02-18T01:35:04.968Z,18.75
2023-02-18T01:37:31.656Z,18.76
2023-02-18T01:39:58.297Z,18.73
2023-02-18T01:42:29.043Z,18.74
2023-02-18T01:45:16.457Z,18.74
2023-02-18T01:47:43.190Z,18.77
2023-02-18T01:50:09.924Z,18.75
2023-02-18T01:52:38.830Z,18.77
2023-02-18T01:55:08.699Z,18.78
2023-02-18T01:57:40.600Z,18.81
2023-02-18T02:00:12.237Z,18.77
2023-02-18T02:02:40.996Z,18.72
2023-02-18T02:05:10.286Z,18.72
2023-02-18T02:07:39.056Z,18.81
2023-02-18T02:10:15.417Z,18.77
2023-02-18T02:12:45.174Z,18.74
2023-02-18T02:15:32.668Z,18.79
2023-02-18T02:18:32.670Z,18.81
2023-02-18T02:21:28.977Z,18.80
2023-02-18T02:24:26.630Z,18.82
2023-02-18T02:26:59.665Z,18.81
2023-02-18T02:29:41.464Z,18.77
2023-02-18T02:32:26.231Z,18.79
2023-02-18T02:35:16.617Z,18.79
2023-02-18T02:38:00.046Z,18.80
2023-02-18T02:40:52.239Z,18.77
2023-02-18T02:43:48.285Z,18.80
2023-02-18T02:46:39.866Z,18.80
2023-02-18T02:49:33.246Z,18.81
2023-02-18T02:52:13.331Z,18.80
2023-02-18T02:54:40.333Z,18.80
2023-02-18T02:57:30.575Z,18.78
2023-02-18T03:00:03.562Z,18.77
2023-02-18T03:02:48.543Z,18.78
2023-02-18T03:05:36.429Z,18.81
2023-02-18T03:08:05.360Z,18.78
2023-02-18T03:10:50.069Z,18.77
2023-02-18T03:13:33.858Z,18.75
2023-02-18T03:16:09.413Z,18.76
2023-02-18T03:18:41.553Z,18.74
2023-02-18T03:21:16.603Z,18.76
2023-02-18T03:24:00.155Z,18.75
2023-02-18T03:26:26.867Z,18.77
2023-02-18T03:28:53.708Z,18.76
2023-02-18T03:31:24.322Z,18.76
2023-02-18T03:33:56.894Z,18.78
2023-02-18T03:36:25.671Z,18.75
2023-02-18T03:39:17.114Z,18.72
2023-02-18T03:41:43.654Z,18.75
2023-02-18T03:44:21.117Z,18.74
2023-02-18T03:46:47.851Z,18.75
2023-02-18T03:49:14.938Z,18.75
2023-02-18T03:51:42.050Z,18.75
2023-02-18T03:54:09.067Z,18.74
2023-02-18T03:56:38.373Z,18.72
2023-02-18T03:59:07.156Z,18.75
2023-02-18T04:01:36.044Z,18.74
2023-02-18T04:04:05.175Z,18.74
2023-02-18T04:06:31.792Z,18.73
2023-02-18T04:09:00.678Z,18.74
2023-02-18T04:11:29.722Z,18.73
2023-02-18T04:13:58.560Z,18.72
2023-02-18T04:16:27.381Z,18.68
2023-02-18T04:18:56.290Z,18.66
2023-02-18T04:21:22.978Z,18.67
2023-02-18T04:23:49.688Z,18.68
2023-02-18T04:26:21.566Z,18.66
2023-02-18T04:28:48.332Z,18.68
2023-02-18T04:31:17.359Z,18.69
2023-02-18T04:33:44.081Z,18.67
2023-02-18T04:36:13.008Z,18.68
2023-02-18T04:38:39.615Z,18.66
2023-02-18T04:41:08.405Z,18.67
2023-02-18T04:43:37.200Z,18.69
2023-02-18T04:46:06.328Z,18.67
2023-02-18T04:48:35.389Z,18.69
2023-02-18T04:51:02.488Z,18.66
2023-02-18T04:53:29.120Z,18.68
2023-02-18T04:55:55.759Z,18.66
2023-02-18T04:58:24.741Z,18.68
2023-02-18T05:00:54.292Z,18.66
2023-02-18T05:03:20.957Z,18.64
2023-02-18T05:05:47.674Z,18.66
2023-02-18T05:08:16.358Z,18.63
2023-02-18T05:10:43.157Z,18.63
2023-02-18T05:13:09.816Z,18.64
2023-02-18T05:15:36.927Z,18.62
2023-02-18T05:18:08.827Z,18.63
2023-02-18T05:20:35.554Z,18.61
2023-02-18T05:23:04.892Z,18.62
2023-02-18T05:25:31.600Z,18.62
2023-02-18T05:28:00.542Z,18.61
2023-02-18T05:30:27.217Z,18.61
2023-02-18T05:32:56.179Z,18.60
2023-02-18T05:35:24.989Z,18.61
2023-02-18T05:37:51.654Z,18.61
2023-02-18T05:40:18.341Z,18.63
2023-02-18T05:42:47.242Z,18.64
2023-02-18T05:45:16.327Z,18.58
2023-02-18T05:47:42.996Z,18.63
2023-02-18T05:50:12.826Z,18.60
2023-02-18T05:52:39.513Z,18.60
2023-02-18T05:55:06.615Z,18.62
2023-02-18T05:57:38.092Z,18.62
2023-02-18T06:00:06.441Z,18.63
2023-02-18T06:02:35.427Z,18.62
2023-02-18T06:05:04.263Z,18.59
2023-02-18T06:07:30.896Z,18.57
2023-02-18T06:09:57.607Z,18.56
2023-02-18T06:12:26.403Z,18.57
2023-02-18T06:14:55.397Z,18.57
2023-02-18T06:17:24.760Z,18.56
2023-02-18T06:19:51.382Z,18.51
2023-02-18T06:22:22.789Z,18.57
2023-02-18T06:24:49.427Z,18.57
2023-02-18T06:27:16.212Z,18.55
2023-02-18T06:29:42.953Z,18.57
2023-02-18T06:32:09.742Z,18.58
2023-02-18T06:34:38.792Z,18.56
2023-02-18T06:37:05.442Z,18.57
2023-02-18T06:39:32.161Z,17.50
2023-02-18T06:42:03.587Z,15.48
2023-02-18T06:44:33.145Z,14.62
2023-02-18T06:47:02.809Z,14.39
2023-02-18T06:49:36.478Z,13.89
2023-02-18T06:52:05.457Z,13.59
2023-02-18T06:54:37.352Z,13.30
2023-02-18T06:57:08.722Z,13.08
2023-02-18T06:59:37.644Z,12.80
2023-02-18T07:02:04.239Z,13.65
2023-02-18T07:04:33.334Z,14.77
2023-02-18T07:07:02.347Z,15.34
2023-02-18T07:09:31.373Z,15.61
2023-02-18T07:12:00.398Z,15.81
2023-02-18T07:14:29.888Z,15.95
2023-02-18T07:16:56.586Z,16.06
2023-02-18T07:19:23.274Z,16.14
2023-02-18T07:21:54.430Z,16.25
2023-02-18T07:24:24.164Z,16.44
2023-02-18T07:26:56.245Z,16.48
2023-02-18T07:29:22.940Z,16.54
2023-02-18T07:31:54.465Z,16.61
2023-02-18T07:34:24.363Z,16.70
2023-02-18T07:36:50.983Z,16.76
2023-02-18T07:39:20.767Z,16.79
2023-02-18T07:41:48.067Z,16.85
2023-02-18T07:44:16.982Z,16.90
2023-02-18T07:46:47.464Z,16.90
2023-02-18T07:49:15.235Z,15.73
2023-02-18T07:51:44.092Z,16.31
2023-02-18T07:54:10.739Z,16.68
2023-02-18T07:56:37.399Z,16.82
2023-02-18T07:59:06.220Z,16.92
2023-02-18T08:01:35.303Z,17.00
2023-02-18T08:04:04.242Z,17.20
2023-02-18T08:06:43.745Z,17.18
2023-02-18T08:09:12.580Z,17.30
2023-02-18T08:11:41.977Z,17.35
2023-02-18T08:14:11.356Z,17.37
2023-02-18T08:16:38.091Z,17.43
2023-02-18T08:19:08.049Z,17.44
2023-02-18T08:21:34.877Z,17.55
2023-02-18T08:24:03.920Z,17.64
2023-02-18T08:26:32.809Z,17.64
2023-02-18T08:28:59.487Z,17.70
2023-02-18T08:31:28.281Z,17.69
2023-02-18T08:33:57.945Z,17.68
2023-02-18T08:36:27.307Z,17.68
2023-02-18T08:38:54.068Z,17.69
2023-02-18T08:41:20.843Z,17.69
2023-02-18T08:43:50.272Z,17.70
2023-02-18T08:46:33.249Z,17.71
2023-02-18T08:49:01.960Z,17.72
2023-02-18T08:51:31.739Z,17.73
2023-02-18T08:53:58.611Z,17.75
2023-02-18T08:56:29.947Z,17.75
2023-02-18T08:58:58.832Z,17.77
2023-02-18T09:01:25.489Z,17.79
2023-02-18T09:03:55.417Z,17.78
2023-02-18T09:06:24.873Z,17.84
2023-02-18T09:08:53.788Z,17.86
2023-02-18T09:11:22.741Z,17.87
2023-02-18T09:13:49.426Z,17.93
2023-02-18T09:16:20.752Z,17.92
2023-02-18T09:18:47.576Z,17.97
2023-02-18T09:21:20.838Z,18.03
2023-02-18T09:23:47.579Z,18.05
2023-02-18T09:26:15.030Z,18.14
2023-02-18T09:28:41.781Z,18.21
2023-02-18T09:31:10.396Z,18.24
2023-02-18T09:33:40.048Z,18.30
2023-02-18T09:36:07.032Z,18.39
2023-02-18T09:38:33.968Z,18.43
2023-02-18T09:41:01.320Z,18.41
2023-02-18T09:43:39.028Z,18.51
2023-02-18T09:46:20.807Z,18.56
2023-02-18T09:48:52.282Z,18.66
2023-02-18T09:51:21.746Z,18.64
2023-02-18T09:53:48.411Z,18.70
2023-02-18T09:56:21.351Z,18.67
2023-02-18T09:58:48.037Z,18.72
2023-02-18T10:01:52.280Z,18.62
2023-02-18T10:04:40.452Z,18.55
2023-02-18T10:07:09.271Z,18.60
2023-02-18T10:09:41.924Z,18.54
2023-02-18T10:12:17.456Z,18.68
2023-02-18T10:14:45.825Z,18.71
2023-02-18T10:17:14.150Z,18.76
2023-02-18T10:19:43.579Z,18.81
2023-02-18T10:22:15.178Z,18.84
2023-02-18T10:24:56.960Z,18.88
2023-02-18T10:27:33.910Z,18.89
2023-02-18T10:30:21.550Z,18.94
2023-02-18T10:32:48.629Z,18.94
2023-02-18T10:35:25.338Z,18.92
2023-02-18T10:37:55.023Z,18.92
2023-02-18T10:40:24.686Z,18.95
2023-02-18T10:42:57.982Z,19.00
2023-02-18T10:45:43.577Z,19.07
2023-02-18T10:48:50.193Z,19.11
2023-02-18T10:51:27.273Z,19.15
2023-02-18T10:53:54.198Z,19.20
2023-02-18T10:56:32.980Z,19.25
2023-02-18T10:59:26.058Z,19.26
2023-02-18T11:01:57.547Z,19.28
2023-02-18T11:04:35.817Z,19.23
2023-02-18T11:07:16.012Z,19.16
2023-02-18T11:09:56.179Z,19.13
2023-02-18T11:12:25.821Z,19.13
2023-02-18T11:15:16.328Z,19.18
2023-02-18T11:17:46.997Z,19.17
2023-02-18T11:20:37.983Z,19.13
2023-02-18T11:23:07.660Z,19.10
2023-02-18T11:25:35.490Z,19.10
2023-02-18T11:28:17.476Z,19.05
2023-02-18T11:30:48.763Z,19.09
2023-02-18T11:33:22.682Z,19.09
2023-02-18T11:35:53.202Z,19.09
2023-02-18T11:38:26.750Z,19.07
2023-02-18T11:41:00.291Z,19.08
2023-02-18T11:43:29.478Z,19.08
2023-02-18T11:46:15.991Z,19.06
2023-02-18T11:48:42.713Z,19.05
2023-02-18T11:51:38.150Z,19.05
2023-02-18T11:54:22.145Z,19.06
2023-02-18T11:56:58.860Z,19.05
2023-02-18T11:59:25.542Z,19.03
2023-02-18T12:01:59.823Z,19.04
2023-02-18T12:04:34.098Z,19.03
2023-02-18T12:07:17.795Z,19.02
2023-02-18T12:09:47.537Z,19.01
2023-02-18T12:12:24.246Z,19.01
2023-02-18T12:14:53.077Z,19.01
2023-02-18T12:17:47.692Z,19.00
2023-02-18T12:20:48.190Z,18.98
2023-02-18T12:23:29.990Z,18.98
2023-02-18T12:26:12.282Z,18.96
2023-02-18T12:29:03.320Z,18.92
2023-02-18T12:31:48.139Z,18.92
2023-02-18T12:34:29.919Z,18.95
2023-02-18T12:37:21.009Z,18.92
2023-02-18T12:40:17.210Z,18.92
2023-02-18T12:43:16.302Z,18.91
2023-02-18T12:46:14.530Z,18.93
2023-02-18T12:49:00.301Z,18.91
2023-02-18T12:51:36.368Z,18.90
2023-02-18T12:54:21.757Z,18.87
2023-02-18T12:56:59.913Z,18.89
2023-02-18T12:59:45.323Z,18.90
2023-02-18T13:02:17.810Z,18.88
2023-02-18T13:05:05.949Z,18.92
2023-02-18T13:07:57.352Z,18.91
2023-02-18T13:10:30.098Z,18.91
2023-02-18T13:13:20.127Z,18.91
2023-02-18T13:15:51.960Z,18.88
2023-02-18T13:18:33.986Z,18.88
2023-02-18T13:21:05.904Z,18.87
2023-02-18T13:23:38.714Z,18.87
2023-02-18T13:26:09.336Z,18.80
2023-02-18T13:28:45.297Z,18.89
2023-02-18T13:31:28.470Z,18.86
2023-02-18T13:34:00.982Z,18.86
2023-02-18T13:36:36.597Z,18.86
2023-02-18T13:39:10.085Z,18.87
2023-02-18T13:41:41.369Z,18.84
2023-02-18T13:44:09.140Z,18.85
2023-02-18T13:46:50.947Z,18.83
2023-02-18T13:49:48.989Z,18.87
2023-02-18T13:52:20.819Z,18.85
2023-02-18T13:54:47.496Z,18.85
2023-02-18T13:57:15.082Z,18.83
2023-02-18T13:59:47.502Z,18.84
2023-02-18T14:02:20.486Z,18.85
2023-02-18T14:04:47.393Z,18.84
2023-02-18T14:07:35.997Z,18.84
2023-02-18T14:10:17.206Z,18.84
2023-02-18T14:12:51.897Z,18.85
2023-02-18T14:15:18.546Z,18.84
2023-02-18T14:18:14.439Z,18.83
2023-02-18T14:20:41.027Z,18.77
2023-02-18T14:23:20.126Z,18.82
2023-02-18T14:25:57.737Z,18.81
2023-02-18T14:28:35.201Z,18.80
2023-02-18T14:31:37.530Z,18.82
2023-02-18T14:34:21.928Z,18.80
2023-02-18T14:37:15.073Z,18.81
2023-02-18T14:40:03.086Z,18.81
2023-02-18T14:42:38.627Z,18.76
2023-02-18T14:45:12.135Z,18.80
2023-02-18T14:47:44.799Z,18.81
2023-02-18T14:50:13.412Z,18.81
2023-02-18T14:52:45.052Z,18.81
2023-02-18T14:55:26.444Z,18.83
2023-02-18T14:57:54.432Z,18.82
2023-02-18T15:00:25.243Z,18.82
2023-02-18T15:02:53.805Z,18.83
2023-02-18T15:05:21.693Z,18.82
2023-02-18T15:08:01.083Z,18.82
2023-02-18T15:10:39.542Z,18.82
2023-02-18T15:13:09.402Z,18.82
2023-02-18T15:15:38.693Z,18.74
2023-02-18T15:18:07.589Z,18.81
2023-02-18T15:20:37.086Z,18.79
2023-02-18T15:23:05.922Z,18.83
2023-02-18T15:25:34.868Z,18.78
2023-02-18T15:28:01.526Z,18.81
2023-02-18T15:30:29.820Z,18.82
2023-02-18T15:33:01.006Z,18.79
2023-02-18T15:35:31.509Z,18.81
2023-02-18T15:38:01.476Z,18.82
2023-02-18T15:40:31.265Z,18.82
2023-02-18T15:42:59.544Z,18.82
2023-02-18T15:45:31.757Z,18.82
2023-02-18T15:47:58.508Z,18.82
2023-02-18T15:50:33.034Z,18.81
2023-02-18T15:53:04.525Z,18.79
2023-02-18T15:55:38.707Z,18.79
2023-02-18T15:58:16.283Z,18.78
2023-02-18T16:00:56.796Z,18.80
2023-02-18T16:03:39.595Z,18.79
2023-02-18T16:06:09.609Z,18.78
2023-02-18T16:08:40.945Z,18.82
2023-02-18T16:11:12.170Z,18.87
2023-02-18T16:13:44.530Z,18.92
2023-02-18T16:16:33.796Z,18.95
2023-02-18T16:19:01.047Z,18.97
2023-02-18T16:21:38.901Z,18.92
2023-02-18T16:24:28.312Z,18.89
2023-02-18T16:26:57.785Z,18.88
2023-02-18T16:29:32.786Z,18.88
2023-02-18T16:31:59.470Z,18.86
2023-02-18T16:34:28.378Z,18.88
2023-02-18T16:37:13.486Z,18.87
2023-02-18T16:39:42.905Z,18.88
2023-02-18T16:42:13.301Z,18.92
2023-02-18T16:44:42.442Z,18.92
2023-02-18T16:47:11.690Z,18.89
2023-02-18T16:49:38.422Z,18.82
2023-02-18T16:52:08.048Z,18.92
2023-02-18T16:54:36.849Z,18.87
2023-02-18T16:57:05.712Z,18.95
2023-02-18T16:59:34.533Z,18.91
2023-02-18T17:02:03.329Z,18.93
2023-02-18T17:04:30.207Z,18.89
2023-02-18T17:06:57.049Z,18.89
2023-02-18T17:09:27.045Z,18.89
2023-02-18T17:11:54.408Z,18.91
2023-02-18T17:14:22.675Z,18.99
2023-02-18T17:16:52.600Z,19.02
2023-02-18T17:19:19.502Z,19.04
2023-02-18T17:21:49.154Z,19.14
2023-02-18T17:24:17.170Z,19.11
2023-02-18T17:26:43.857Z,19.12
2023-02-18T17:29:10.631Z,19.19
2023-02-18T17:31:44.400Z,19.19
2023-02-18T17:34:22.834Z,19.14
2023-02-18T17:36:49.485Z,19.14
2023-02-18T17:39:19.530Z,19.14
2023-02-18T17:41:51.549Z,19.14
2023-02-18T17:44:20.144Z,19.16
2023-02-18T17:46:46.970Z,19.16
2023-02-18T17:49:13.624Z,19.19
2023-02-18T17:51:42.726Z,19.19
2023-02-18T17:54:16.484Z,19.20
2023-02-18T17:56:45.253Z,19.20
2023-02-18T17:59:14.128Z,19.19
2023-02-18T18:01:43.416Z,19.20
2023-02-18T18:04:17.236Z,19.24
2023-02-18T18:06:44.244Z,19.23
2023-02-18T18:09:10.873Z,19.23
2023-02-18T18:11:37.581Z,19.22
2023-02-18T18:14:04.298Z,19.24
2023-02-18T18:16:33.073Z,19.27
2023-02-18T18:18:59.749Z,19.27
2023-02-18T18:21:35.451Z,19.25
2023-02-18T18:24:05.408Z,19.27
2023-02-18T18:26:36.744Z,19.27
2023-02-18T18:29:05.803Z,19.28
2023-02-18T18:31:32.673Z,19.29
2023-02-18T18:34:01.575Z,19.29
2023-02-18T18:36:28.438Z,19.31
2023-02-18T18:38:57.253Z,19.28
2023-02-18T18:41:26.235Z,19.31
2023-02-18T18:43:57.944Z,19.32
2023-02-18T18:46:26.904Z,19.31
2023-02-18T18:48:55.825Z,19.30
2023-02-18T18:51:27.396Z,19.31
2023-02-18T18:53:54.194Z,19.29
2023-02-18T18:56:21.986Z,19.29
2023-02-18T18:58:49.622Z,19.30
2023-02-18T19:01:20.863Z,19.30
2023-02-18T19:03:49.685Z,19.34
2023-02-18T19:06:18.881Z,19.32
2023-02-18T19:08:47.873Z,19.34
2023-02-18T19:11:14.727Z,19.34
2023-02-18T19:13:41.697Z,19.36
2023-02-18T19:16:16.838Z,19.35
2023-02-18T19:18:46.016Z,19.39
2023-02-18T19:21:12.722Z,19.39
2023-02-18T19:23:41.628Z,19.38
2023-02-18T19:26:13.664Z,19.40
2023-02-18T19:28:42.523Z,19.27
2023-02-18T19:31:12.320Z,19.38
2023-02-18T19:33:39.444Z,19.35
2023-02-18T19:36:10.178Z,19.39
2023-02-18T19:38:36.971Z,19.39
2023-02-18T19:41:12.490Z,19.38
2023-02-18T19:43:40.065Z,19.39
2023-02-18T19:46:14.844Z,19.38
2023-02-18T19:48:41.676Z,19.40
2023-02-18T19:51:10.979Z,19.38
2023-02-18T19:53:40.291Z,19.41
2023-02-18T19:56:07.928Z,19.39
2023-02-18T19:58:40.034Z,19.37
2023-02-18T20:01:19.125Z,19.37
2023-02-18T20:03:47.918Z,19.38
2023-02-18T20:06:16.275Z,19.39
2023-02-18T20:08:43.228Z,19.39
2023-02-18T20:11:12.247Z,19.37
2023-02-18T20:13:43.689Z,19.37
2023-02-18T20:16:13.159Z,19.37
2023-02-18T20:18:44.565Z,19.37
2023-02-18T20:21:12.128Z,19.38
2023-02-18T20:23:39.236Z,19.38
2023-02-18T20:26:11.578Z,19.36
2023-02-18T20:28:38.382Z,19.33
2023-02-18T20:31:10.164Z,19.39
2023-02-18T20:33:37.757Z,19.36
2023-02-18T20:36:07.496Z,19.35
2023-02-18T20:38:35.593Z,19.34
2023-02-18T20:41:14.034Z,19.35
2023-02-18T20:43:43.978Z,19.34
2023-02-18T20:46:19.008Z,19.36
2023-02-18T20:48:46.014Z,19.33
2023-02-18T20:51:14.401Z,19.30
2023-02-18T20:53:41.938Z,19.32
2023-02-18T20:56:08.754Z,19.34
2023-02-18T20:58:38.564Z,19.33
2023-02-18T21:01:12.138Z,19.37
2023-02-18T21:03:39.098Z,19.40
2023-02-18T21:06:14.024Z,19.30
2023-02-18T21:08:40.913Z,19.38
2023-02-18T21:11:11.973Z,19.42
2023-02-18T21:13:40.959Z,19.33
2023-02-18T21:16:12.254Z,19.43
2023-02-18T21:18:41.242Z,19.57
2023-02-18T21:21:08.798Z,19.48
2023-02-18T21:23:35.715Z,19.41
2023-02-18T21:26:13.360Z,19.37
2023-02-18T21:28:42.673Z,19.44
2023-02-18T21:31:19.944Z,19.42
2023-02-18T21:33:46.756Z,19.38
2023-02-18T21:36:15.890Z,19.38
2023-02-18T21:38:46.621Z,19.37
2023-02-18T21:41:15.628Z,19.34
2023-02-18T21:43:45.929Z,19.36
2023-02-18T21:46:16.708Z,19.37
2023-02-18T21:49:01.821Z,19.36
2023-02-18T21:51:54.081Z,19.39
2023-02-18T21:54:32.155Z,19.38
2023-02-18T21:56:59.351Z,19.37
2023-02-18T21:59:30.354Z,19.37
2023-02-18T22:01:59.756Z,19.36
2023-02-18T22:04:27.232Z,19.37
2023-02-18T22:06:53.931Z,19.35
2023-02-18T22:09:20.586Z,19.35
2023-02-18T22:11:49.486Z,19.37
2023-02-18T22:14:17.073Z,19.36
2023-02-18T22:16:48.447Z,19.33
2023-02-18T22:19:17.464Z,19.34
2023-02-18T22:21:44.330Z,19.28
2023-02-18T22:24:12.603Z,19.34
2023-02-18T22:26:39.479Z,19.32
2023-02-18T22:29:08.492Z,19.33
2023-02-18T22:31:35.232Z,19.33
2023-02-18T22:34:01.867Z,19.34
2023-02-18T22:36:31.396Z,19.32
2023-02-18T22:39:01.826Z,19.30
2023-02-18T22:41:29.578Z,19.32
2023-02-18T22:43:59.956Z,19.30
2023-02-18T22:46:29.339Z,19.29
2023-02-18T22:48:58.514Z,19.30
2023-02-18T22:51:29.882Z,19.29
2023-02-18T22:53:57.241Z,19.30
2023-02-18T22:56:27.595Z,19.29
2023-02-18T22:58:56.973Z,19.28
2023-02-18T23:01:28.769Z,19.25
2023-02-18T23:03:56.555Z,19.27
2023-02-18T23:06:23.249Z,19.24
2023-02-18T23:08:53.440Z,19.26
2023-02-18T23:11:20.248Z,19.27
2023-02-18T23:14:07.391Z,19.27
2023-02-18T23:16:54.305Z,19.26
2023-02-18T23:19:21.118Z,19.26
2023-02-18T23:21:47.966Z,19.27
2023-02-18T23:24:16.977Z,19.25
2023-02-18T23:26:43.782Z,19.24
2023-02-18T23:29:10.513Z,19.24
2023-02-18T23:31:37.990Z,19.26
2023-02-18T23:34:05.687Z,19.25
2023-02-18T23:36:35.963Z,19.23
2023-02-18T23:39:04.956Z,19.26
2023-02-18T23:41:31.869Z,19.26
2023-02-18T23:43:58.476Z,19.25
2023-02-18T23:46:28.559Z,19.24
2023-02-18T23:48:57.370Z,19.25
2023-02-18T23:51:27.010Z,19.28
2023-02-18T23:53:53.697Z,19.24
2023-02-18T23:56:29.554Z,19.25
2023-02-18T23:59:00.520Z,19.23
